createdAt,value
2019-03-25T00:01:17.854Z,8.24
2019-03-25T00:03:46.202Z,8.10
2019-03-25T00:06:14.421Z,8.20
2019-03-25T00:08:42.414Z,8.14
2019-03-25T00:11:10.565Z,8.26
2019-03-25T00:13:38.639Z,8.45
2019-03-25T00:16:06.850Z,8.29
2019-03-25T00:18:34.830Z,8.13
2019-03-25T00:21:02.883Z,8.17
2019-03-25T00:23:30.865Z,8.09
2019-03-25T00:25:58.822Z,8.33
2019-03-25T00:28:26.880Z,8.25
2019-03-25T00:30:55.059Z,8.24
2019-03-25T00:33:23.148Z,8.30
2019-03-25T00:35:51.074Z,8.16
2019-03-25T00:38:19.069Z,8.23
2019-03-25T00:40:47.080Z,8.15
2019-03-25T00:43:15.065Z,8.23
2019-03-25T00:45:43.062Z,8.06
2019-03-25T00:48:10.985Z,7.90
2019-03-25T00:50:38.977Z,7.84
2019-03-25T00:53:07.026Z,8.01
2019-03-25T00:55:35.014Z,8.03
2019-03-25T00:58:03.054Z,8.11
2019-03-25T01:00:30.993Z,8.17
2019-03-25T01:02:58.990Z,8.30
2019-03-25T01:05:26.992Z,8.33
2019-03-25T01:07:54.987Z,8.35
2019-03-25T01:10:23.090Z,8.24
2019-03-25T01:12:51.118Z,8.31
2019-03-25T01:15:19.107Z,8.40
2019-03-25T01:17:47.113Z,8.45
2019-03-25T01:20:15.311Z,8.55
2019-03-25T01:22:43.421Z,8.38
2019-03-25T01:25:11.325Z,8.41
2019-03-25T01:27:39.309Z,8.45
2019-03-25T01:30:07.707Z,8.44
2019-03-25T01:32:35.752Z,8.41
2019-03-25T01:35:03.994Z,8.32
2019-03-25T01:37:31.991Z,8.33
2019-03-25T01:39:59.956Z,8.47
2019-03-25T01:42:28.014Z,8.46
2019-03-25T01:44:56.046Z,8.16
2019-03-25T01:47:24.014Z,8.16
2019-03-25T01:49:52.047Z,8.05
2019-03-25T01:52:20.101Z,7.99
2019-03-25T01:54:48.081Z,7.80
2019-03-25T01:57:16.086Z,7.46
2019-03-25T01:59:44.078Z,7.06
2019-03-25T02:02:12.095Z,6.74
2019-03-25T02:04:40.134Z,6.42
2019-03-25T02:07:08.151Z,6.13
2019-03-25T02:09:36.102Z,5.88
2019-03-25T02:12:04.227Z,5.75
2019-03-25T02:14:32.264Z,5.57
2019-03-25T02:17:00.265Z,5.56
2019-03-25T02:19:28.176Z,5.56
2019-03-25T02:21:56.166Z,5.59
2019-03-25T02:24:24.148Z,5.55
2019-03-25T02:26:52.079Z,5.52
2019-03-25T02:29:20.081Z,5.56
2019-03-25T02:31:48.110Z,5.58
2019-03-25T02:34:16.201Z,5.61
2019-03-25T02:36:44.213Z,5.63
2019-03-25T02:39:12.153Z,5.63
2019-03-25T02:41:40.132Z,5.68
2019-03-25T02:44:08.157Z,5.88
2019-03-25T02:46:36.187Z,5.94
2019-03-25T02:49:04.318Z,5.92
2019-03-25T02:51:32.291Z,5.92
2019-03-25T02:54:00.269Z,5.91
2019-03-25T02:56:28.285Z,5.75
2019-03-25T02:58:56.282Z,5.79
2019-03-25T03:01:24.252Z,5.79
2019-03-25T03:03:52.262Z,5.82
2019-03-25T03:06:20.248Z,5.82
2019-03-25T03:08:48.189Z,6.06
2019-03-25T03:11:16.172Z,6.03
2019-03-25T03:13:44.181Z,6.13
2019-03-25T03:16:12.250Z,6.13
2019-03-25T03:18:40.265Z,6.16
2019-03-25T03:21:08.227Z,6.12
2019-03-25T03:23:36.254Z,6.18
2019-03-25T03:26:04.479Z,6.24
2019-03-25T03:28:32.477Z,6.48
2019-03-25T03:31:00.595Z,6.70
2019-03-25T03:33:28.538Z,6.75
2019-03-25T03:35:56.737Z,6.74
2019-03-25T03:38:24.805Z,6.79
2019-03-25T03:40:52.838Z,6.83
2019-03-25T03:43:21.073Z,6.79
2019-03-25T03:45:49.093Z,6.83
2019-03-25T03:48:17.063Z,6.80
2019-03-25T03:50:45.137Z,6.86
2019-03-25T03:53:13.259Z,7.18
2019-03-25T03:55:41.280Z,7.08
2019-03-25T03:58:09.302Z,7.11
2019-03-25T04:00:37.384Z,7.13
2019-03-25T04:03:05.515Z,7.00
2019-03-25T04:05:33.562Z,6.84
2019-03-25T04:08:03.662Z,6.32
2019-03-25T04:10:40.484Z,6.13
2019-03-25T04:13:08.662Z,5.83
2019-03-25T04:15:36.722Z,5.45
2019-03-25T04:18:04.797Z,5.37
2019-03-25T04:20:32.879Z,5.01
2019-03-25T04:23:01.076Z,4.69
2019-03-25T04:25:29.130Z,4.60
2019-03-25T04:27:57.228Z,4.89
2019-03-25T04:30:25.478Z,5.14
2019-03-25T04:32:53.544Z,4.73
2019-03-25T04:35:23.869Z,4.53
2019-03-25T04:37:51.793Z,4.61
2019-03-25T04:40:19.934Z,4.28
2019-03-25T04:42:48.071Z,4.36
2019-03-25T04:45:16.475Z,4.83
2019-03-25T04:47:44.658Z,4.94
2019-03-25T04:50:12.919Z,5.27
2019-03-25T04:52:41.011Z,5.51
2019-03-25T04:55:09.594Z,5.71
2019-03-25T04:57:37.903Z,5.89
2019-03-25T05:00:07.575Z,5.94
2019-03-25T05:02:35.596Z,6.03
2019-03-25T05:05:03.855Z,6.02
2019-03-25T05:07:33.173Z,6.04
2019-03-25T05:10:01.238Z,5.98
2019-03-25T05:12:29.426Z,6.03
2019-03-25T05:14:57.491Z,5.98
2019-03-25T05:17:25.530Z,6.36
2019-03-25T05:19:53.592Z,6.45
2019-03-25T05:22:21.668Z,6.56
2019-03-25T05:24:49.769Z,6.51
2019-03-25T05:27:19.602Z,6.59
2019-03-25T05:29:48.294Z,6.95
2019-03-25T05:32:16.470Z,6.96
2019-03-25T05:34:44.596Z,6.95
2019-03-25T05:37:12.749Z,7.05
2019-03-25T05:39:40.852Z,7.24
2019-03-25T05:42:09.656Z,7.45
2019-03-25T05:44:37.761Z,7.56
2019-03-25T05:47:05.935Z,7.78
2019-03-25T05:49:33.992Z,7.75
2019-03-25T05:52:01.921Z,7.76
2019-03-25T05:54:29.991Z,7.78
2019-03-25T05:57:02.878Z,7.95
2019-03-25T05:59:27.997Z,8.06
2019-03-25T06:01:56.019Z,7.96
2019-03-25T06:04:24.073Z,8.05
2019-03-25T06:06:52.306Z,8.00
2019-03-25T06:09:20.464Z,8.12
2019-03-25T06:11:48.493Z,8.32
2019-03-25T06:14:16.570Z,8.41
2019-03-25T06:16:44.616Z,8.32
2019-03-25T06:19:12.820Z,8.41
2019-03-25T06:21:40.819Z,8.45
2019-03-25T06:24:08.881Z,8.83
2019-03-25T06:26:36.920Z,8.82
2019-03-25T06:29:05.021Z,8.77
2019-03-25T06:31:33.010Z,8.61
2019-03-25T06:34:01.031Z,8.70
2019-03-25T06:36:29.063Z,8.75
2019-03-25T06:38:57.158Z,9.03
2019-03-25T06:41:25.453Z,9.27
2019-03-25T06:43:54.601Z,9.56
2019-03-25T06:46:22.653Z,9.73
2019-03-25T06:48:50.811Z,9.62
2019-03-25T06:51:19.002Z,9.93
2019-03-25T06:53:52.441Z,9.87
2019-03-25T06:56:20.565Z,10.05
2019-03-25T06:58:48.648Z,10.44
2019-03-25T07:01:16.690Z,10.76
2019-03-25T07:03:44.783Z,10.66
2019-03-25T07:06:12.760Z,10.74
2019-03-25T07:08:40.929Z,11.05
2019-03-25T07:11:09.859Z,11.36
2019-03-25T07:13:37.893Z,11.51
2019-03-25T07:16:05.953Z,11.53
2019-03-25T07:18:33.964Z,11.46
2019-03-25T07:21:02.033Z,11.46
2019-03-25T07:23:30.181Z,11.50
2019-03-25T07:25:58.269Z,11.74
2019-03-25T07:28:26.324Z,11.71
2019-03-25T07:30:54.368Z,11.56
2019-03-25T07:33:22.742Z,11.53
2019-03-25T07:35:50.733Z,11.59
2019-03-25T07:38:18.831Z,11.57
2019-03-25T07:40:46.966Z,11.52
2019-03-25T07:43:15.186Z,11.54
2019-03-25T07:45:44.388Z,11.83
2019-03-25T07:48:12.456Z,12.04
2019-03-25T07:50:40.477Z,11.76
2019-03-25T07:53:08.586Z,11.58
2019-03-25T07:55:36.697Z,11.61
2019-03-25T07:58:04.819Z,11.89
2019-03-25T08:00:34.371Z,12.02
2019-03-25T08:03:02.648Z,12.34
2019-03-25T08:05:30.697Z,12.39
2019-03-25T08:07:59.217Z,12.39
2019-03-25T08:10:32.545Z,12.11
2019-03-25T08:13:00.708Z,12.31
2019-03-25T08:15:28.939Z,12.47
2019-03-25T08:17:56.955Z,12.65
2019-03-25T08:20:24.892Z,13.17
2019-03-25T08:22:52.952Z,13.13
2019-03-25T08:25:20.976Z,13.24
2019-03-25T08:27:59.381Z,13.47
2019-03-25T08:30:19.128Z,13.67
2019-03-25T08:32:47.333Z,13.88
2019-03-25T08:35:15.396Z,13.72
2019-03-25T08:37:43.457Z,13.83
2019-03-25T08:40:11.872Z,14.21
2019-03-25T08:42:40.166Z,14.26
2019-03-25T08:45:08.957Z,14.35
2019-03-25T08:47:36.962Z,14.28
2019-03-25T08:50:08.896Z,14.07
2019-03-25T08:52:36.961Z,14.13
2019-03-25T08:55:05.247Z,14.56
2019-03-25T08:57:33.357Z,14.64
2019-03-25T09:00:01.512Z,14.47
2019-03-25T09:02:29.543Z,14.73
2019-03-25T09:04:57.501Z,15.10
2019-03-25T09:07:25.518Z,15.38
2019-03-25T09:09:53.534Z,15.57
2019-03-25T09:12:21.582Z,15.35
2019-03-25T09:14:49.681Z,15.21
2019-03-25T09:17:17.732Z,15.18
2019-03-25T09:19:45.657Z,15.32
2019-03-25T09:22:13.797Z,15.23
2019-03-25T09:24:41.885Z,15.43
2019-03-25T09:27:10.059Z,15.20
2019-03-25T09:29:38.158Z,15.14
2019-03-25T09:32:06.370Z,15.36
2019-03-25T09:34:34.579Z,15.45
2019-03-25T09:37:02.673Z,15.52
2019-03-25T09:39:30.762Z,15.64
2019-03-25T09:41:59.295Z,15.80
2019-03-25T09:44:27.425Z,16.08
2019-03-25T09:46:55.781Z,16.32
2019-03-25T09:49:23.931Z,16.60
2019-03-25T09:51:52.977Z,16.76
2019-03-25T09:54:21.350Z,16.97
2019-03-25T09:56:49.424Z,16.90
2019-03-25T09:59:17.448Z,16.73
2019-03-25T10:01:45.896Z,16.66
2019-03-25T10:04:13.941Z,16.81
2019-03-25T10:06:44.099Z,17.37
2019-03-25T10:09:12.322Z,17.57
2019-03-25T10:11:40.391Z,17.61
2019-03-25T10:14:08.634Z,18.14
2019-03-25T10:16:37.195Z,18.26
2019-03-25T10:19:05.374Z,18.50
2019-03-25T10:21:33.916Z,18.38
2019-03-25T10:24:02.061Z,18.48
2019-03-25T10:26:30.230Z,18.56
2019-03-25T10:28:58.377Z,18.58
2019-03-25T10:31:26.690Z,18.82
2019-03-25T10:33:54.777Z,19.00
2019-03-25T10:36:22.982Z,18.72
2019-03-25T10:38:51.258Z,18.61
2019-03-25T10:41:19.412Z,18.60
2019-03-25T10:43:47.439Z,18.53
2019-03-25T10:46:15.688Z,18.82
2019-03-25T10:48:43.841Z,19.04
2019-03-25T10:51:11.993Z,19.43
2019-03-25T10:53:40.337Z,19.87
2019-03-25T10:56:08.607Z,19.70
2019-03-25T10:58:36.602Z,19.61
2019-03-25T11:01:05.370Z,19.58
2019-03-25T11:03:33.459Z,19.67
2019-03-25T11:06:01.446Z,19.63
2019-03-25T11:08:29.705Z,19.62
2019-03-25T11:10:58.204Z,19.62
2019-03-25T11:13:26.346Z,19.63
2019-03-25T11:15:54.431Z,19.71
2019-03-25T11:18:22.581Z,19.91
2019-03-25T11:20:50.865Z,20.41
2019-03-25T11:23:19.106Z,20.70
2019-03-25T11:25:47.775Z,20.94
2019-03-25T11:28:15.811Z,20.90
2019-03-25T11:30:51.846Z,21.07
2019-03-25T11:33:20.632Z,21.12
2019-03-25T11:35:48.794Z,21.32
2019-03-25T11:38:16.811Z,21.41
2019-03-25T11:40:44.970Z,21.47
2019-03-25T11:43:13.135Z,21.66
2019-03-25T11:45:41.244Z,21.80
2019-03-25T11:48:09.356Z,21.82
2019-03-25T11:50:37.358Z,21.82
2019-03-25T11:53:05.423Z,21.80
2019-03-25T11:55:33.878Z,21.71
2019-03-25T11:58:01.932Z,21.62
2019-03-25T12:00:30.415Z,21.82
2019-03-25T12:02:58.600Z,21.89
2019-03-25T12:05:26.663Z,21.76
2019-03-25T12:07:54.743Z,21.78
2019-03-25T12:10:23.094Z,21.82
2019-03-25T12:12:51.088Z,21.96
2019-03-25T12:15:19.112Z,21.93
2019-03-25T12:17:47.398Z,22.04
2019-03-25T12:20:15.560Z,22.04
2019-03-25T12:22:43.776Z,22.18
2019-03-25T12:25:11.928Z,22.13
2019-03-25T12:27:40.640Z,22.25
2019-03-25T12:30:09.460Z,22.24
2019-03-25T12:32:37.555Z,21.98
2019-03-25T12:35:06.357Z,21.98
2019-03-25T12:37:34.348Z,22.07
2019-03-25T12:40:02.454Z,21.88
2019-03-25T12:42:30.622Z,21.76
2019-03-25T12:44:58.841Z,21.77
2019-03-25T12:47:27.134Z,21.77
2019-03-25T12:49:56.443Z,21.88
2019-03-25T12:52:24.482Z,21.95
2019-03-25T12:54:52.477Z,22.07
2019-03-25T12:57:20.563Z,22.24
2019-03-25T12:59:48.655Z,22.17
2019-03-25T13:02:16.630Z,22.13
2019-03-25T13:04:44.652Z,22.03
2019-03-25T13:07:12.987Z,21.98
2019-03-25T13:09:41.429Z,21.96
2019-03-25T13:12:09.516Z,22.07
2019-03-25T13:14:37.613Z,22.14
2019-03-25T13:17:05.766Z,22.25
2019-03-25T13:19:33.852Z,22.17
2019-03-25T13:22:02.114Z,22.32
2019-03-25T13:24:30.341Z,22.40
2019-03-25T13:26:58.337Z,22.48
2019-03-25T13:29:26.487Z,22.49
2019-03-25T13:31:54.681Z,22.84
2019-03-25T13:34:22.692Z,22.69
2019-03-25T13:36:50.780Z,22.85
2019-03-25T13:39:18.847Z,23.01
2019-03-25T13:41:46.852Z,22.81
2019-03-25T13:44:14.878Z,22.85
2019-03-25T13:46:43.277Z,22.96
2019-03-25T13:49:11.566Z,22.68
2019-03-25T13:51:39.760Z,22.86
2019-03-25T13:54:07.943Z,23.15
2019-03-25T13:56:35.918Z,23.24
2019-03-25T13:59:04.072Z,23.26
2019-03-25T14:01:32.078Z,23.26
2019-03-25T14:04:00.111Z,22.71
2019-03-25T14:06:28.171Z,22.64
2019-03-25T14:08:56.272Z,23.02
2019-03-25T14:11:24.370Z,22.96
2019-03-25T14:13:52.474Z,22.91
2019-03-25T14:16:20.506Z,22.89
2019-03-25T14:18:48.541Z,23.10
2019-03-25T14:21:16.649Z,23.29
2019-03-25T14:23:44.667Z,23.04
2019-03-25T14:26:12.660Z,23.22
2019-03-25T14:28:40.759Z,23.15
2019-03-25T14:31:08.840Z,23.17
2019-03-25T14:33:36.834Z,23.33
2019-03-25T14:36:05.035Z,23.33
2019-03-25T14:38:33.204Z,23.39
2019-03-25T14:41:01.284Z,23.25
2019-03-25T14:43:29.329Z,23.25
2019-03-25T14:45:57.400Z,23.38
2019-03-25T14:48:25.408Z,23.26
2019-03-25T14:50:53.552Z,23.33
2019-03-25T14:53:21.623Z,23.39
2019-03-25T14:55:49.682Z,23.52
2019-03-25T14:58:17.754Z,23.58
2019-03-25T15:00:45.830Z,23.32
2019-03-25T15:03:13.842Z,23.49
2019-03-25T15:05:41.879Z,23.23
2019-03-25T15:08:09.943Z,22.97
2019-03-25T15:10:37.946Z,22.92
2019-03-25T15:13:06.051Z,23.01
2019-03-25T15:15:34.145Z,23.14
2019-03-25T15:18:02.366Z,23.26
2019-03-25T15:20:30.445Z,23.13
2019-03-25T15:22:58.495Z,23.22
2019-03-25T15:25:27.114Z,23.02
2019-03-25T15:27:55.188Z,22.81
2019-03-25T15:30:23.234Z,22.68
2019-03-25T15:32:51.266Z,22.56
2019-03-25T15:35:19.358Z,22.60
2019-03-25T15:37:47.426Z,22.33
2019-03-25T15:40:16.050Z,22.34
2019-03-25T15:42:44.113Z,22.25
2019-03-25T15:45:12.300Z,22.43
2019-03-25T15:47:43.786Z,22.44
2019-03-25T15:50:11.413Z,22.44
2019-03-25T15:52:39.597Z,22.37
2019-03-25T15:55:09.089Z,22.27
2019-03-25T15:57:39.556Z,22.14
2019-03-25T16:00:12.372Z,22.16
2019-03-25T16:02:40.638Z,22.08
2019-03-25T16:05:08.811Z,21.99
2019-03-25T16:07:36.848Z,21.89
2019-03-25T16:10:05.618Z,21.86
2019-03-25T16:12:33.717Z,21.88
2019-03-25T16:15:01.931Z,21.83
2019-03-25T16:17:29.987Z,21.83
2019-03-25T16:19:58.039Z,21.77
2019-03-25T16:22:26.092Z,21.70
2019-03-25T16:24:54.161Z,21.60
2019-03-25T16:27:22.274Z,21.55
2019-03-25T16:29:50.330Z,21.49
2019-03-25T16:32:18.401Z,21.39
2019-03-25T16:34:46.748Z,21.24
2019-03-25T16:37:14.716Z,21.15
2019-03-25T16:39:42.719Z,21.10
2019-03-25T16:42:16.896Z,21.02
2019-03-25T16:44:45.034Z,21.00
2019-03-25T16:47:14.475Z,20.96
2019-03-25T16:49:42.528Z,20.93
2019-03-25T16:52:10.559Z,20.92
2019-03-25T16:54:40.525Z,20.89
2019-03-25T16:57:08.612Z,20.80
2019-03-25T16:59:36.733Z,20.80
2019-03-25T17:02:04.831Z,20.83
2019-03-25T17:04:32.904Z,20.78
2019-03-25T17:07:00.900Z,20.76
2019-03-25T17:09:28.906Z,20.77
2019-03-25T17:11:57.035Z,20.66
2019-03-25T17:14:25.590Z,20.68
2019-03-25T17:16:53.634Z,20.58
2019-03-25T17:19:21.658Z,20.31
2019-03-25T17:21:57.615Z,20.18
2019-03-25T17:24:19.615Z,20.06
2019-03-25T17:26:47.720Z,19.99
2019-03-25T17:29:15.756Z,19.71
2019-03-25T17:31:43.827Z,19.50
2019-03-25T17:34:11.900Z,19.38
2019-03-25T17:36:40.031Z,19.32
2019-03-25T17:39:09.357Z,19.11
2019-03-25T17:41:37.464Z,19.01
2019-03-25T17:44:05.486Z,18.98
2019-03-25T17:46:33.636Z,18.84
2019-03-25T17:49:01.668Z,18.83
2019-03-25T17:51:29.680Z,18.87
2019-03-25T17:53:57.866Z,18.82
2019-03-25T17:56:26.025Z,18.78
2019-03-25T17:58:54.499Z,18.59
2019-03-25T18:01:32.550Z,18.43
2019-03-25T18:03:59.599Z,18.19
2019-03-25T18:06:27.734Z,17.99
2019-03-25T18:08:56.706Z,18.05
2019-03-25T18:11:24.803Z,17.99
2019-03-25T18:13:53.828Z,17.87
2019-03-25T18:16:22.255Z,17.77
2019-03-25T18:18:50.404Z,17.72
2019-03-25T18:21:18.605Z,17.62
2019-03-25T18:23:46.641Z,17.54
2019-03-25T18:26:15.220Z,17.43
2019-03-25T18:28:43.391Z,17.33
2019-03-25T18:31:11.433Z,17.16
2019-03-25T18:33:39.455Z,17.16
2019-03-25T18:36:07.564Z,17.15
2019-03-25T18:38:35.635Z,17.16
2019-03-25T18:41:03.669Z,17.01
2019-03-25T18:43:31.722Z,16.82
2019-03-25T18:45:59.856Z,16.76
2019-03-25T18:48:28.584Z,16.65
2019-03-25T18:50:56.589Z,16.44
2019-03-25T18:53:24.927Z,16.27
2019-03-25T18:55:53.383Z,16.46
2019-03-25T18:58:21.581Z,16.20
2019-03-25T19:00:49.657Z,16.22
2019-03-25T19:03:18.559Z,16.05
2019-03-25T19:05:47.123Z,15.93
2019-03-25T19:08:15.357Z,15.87
2019-03-25T19:10:45.335Z,15.82
2019-03-25T19:13:13.334Z,15.81
2019-03-25T19:15:41.556Z,15.88
2019-03-25T19:18:10.034Z,15.84
2019-03-25T19:20:38.314Z,15.65
2019-03-25T19:23:06.649Z,15.59
2019-03-25T19:25:37.191Z,15.41
2019-03-25T19:28:05.630Z,15.21
2019-03-25T19:30:34.032Z,15.16
2019-03-25T19:33:02.093Z,15.24
2019-03-25T19:35:30.405Z,15.23
2019-03-25T19:37:58.580Z,15.21
2019-03-25T19:40:26.811Z,15.03
2019-03-25T19:42:54.959Z,14.87
2019-03-25T19:45:23.459Z,14.73
2019-03-25T19:47:52.354Z,14.63
2019-03-25T19:50:20.877Z,14.68
2019-03-25T19:52:49.240Z,14.73
2019-03-25T19:55:17.235Z,14.65
2019-03-25T19:57:45.433Z,14.63
2019-03-25T20:00:13.915Z,14.61
2019-03-25T20:02:41.987Z,14.68
2019-03-25T20:05:10.258Z,14.47
2019-03-25T20:07:38.827Z,14.30
2019-03-25T20:10:09.260Z,14.28
2019-03-25T20:12:38.426Z,14.22
2019-03-25T20:15:07.070Z,14.08
2019-03-25T20:17:35.379Z,14.06
2019-03-25T20:20:04.209Z,13.99
2019-03-25T20:22:32.496Z,14.19
2019-03-25T20:25:01.227Z,14.29
2019-03-25T20:27:29.412Z,14.26
2019-03-25T20:29:58.248Z,14.26
2019-03-25T20:32:31.633Z,14.32
2019-03-25T20:34:56.454Z,14.38
2019-03-25T20:37:24.896Z,14.50
2019-03-25T20:39:52.887Z,14.42
2019-03-25T20:42:21.022Z,14.29
2019-03-25T20:44:49.074Z,14.35
2019-03-25T20:47:17.376Z,14.25
2019-03-25T20:49:45.478Z,14.03
2019-03-25T20:52:13.530Z,14.10
2019-03-25T20:54:41.951Z,13.94
2019-03-25T20:57:10.014Z,14.06
2019-03-25T20:59:39.740Z,14.07
2019-03-25T21:02:07.943Z,14.06
2019-03-25T21:04:36.148Z,13.98
2019-03-25T21:07:05.210Z,14.22
2019-03-25T21:09:33.295Z,14.13
2019-03-25T21:12:01.392Z,14.24
2019-03-25T21:14:29.721Z,14.31
2019-03-25T21:16:57.980Z,14.22
2019-03-25T21:19:26.139Z,14.08
2019-03-25T21:21:54.288Z,14.04
2019-03-25T21:24:22.370Z,13.90
2019-03-25T21:26:50.891Z,13.83
2019-03-25T21:29:18.925Z,13.80
2019-03-25T21:31:47.013Z,13.80
2019-03-25T21:34:15.016Z,13.84
2019-03-25T21:36:43.132Z,14.03
2019-03-25T21:39:11.279Z,13.88
2019-03-25T21:41:39.404Z,13.99
2019-03-25T21:44:07.732Z,14.19
2019-03-25T21:46:35.798Z,14.06
2019-03-25T21:49:04.040Z,13.97
2019-03-25T21:51:32.239Z,14.15
2019-03-25T21:54:00.295Z,14.01
2019-03-25T21:56:28.551Z,14.02
2019-03-25T21:58:56.588Z,13.96
2019-03-25T22:01:24.957Z,14.03
2019-03-25T22:03:53.195Z,14.03
2019-03-25T22:06:21.385Z,14.07
2019-03-25T22:08:49.509Z,13.91
2019-03-25T22:11:17.533Z,13.85
2019-03-25T22:13:45.515Z,14.00
2019-03-25T22:16:13.703Z,14.08
2019-03-25T22:18:41.912Z,14.14
2019-03-25T22:21:09.940Z,14.05
2019-03-25T22:23:38.014Z,14.06
2019-03-25T22:26:05.938Z,14.16
2019-03-25T22:28:33.946Z,13.97
2019-03-25T22:31:01.976Z,14.13
2019-03-25T22:33:30.038Z,14.10
2019-03-25T22:35:57.978Z,14.17
2019-03-25T22:38:26.014Z,14.19
2019-03-25T22:40:54.016Z,14.06
2019-03-25T22:43:21.966Z,14.04
2019-03-25T22:45:49.977Z,14.04
2019-03-25T22:48:18.082Z,14.10
2019-03-25T22:50:46.178Z,13.81
2019-03-25T22:53:14.125Z,13.99
2019-03-25T22:55:42.172Z,13.57
2019-03-25T22:58:10.193Z,13.12
2019-03-25T23:00:43.875Z,12.72
2019-03-25T23:03:12.047Z,12.63
2019-03-25T23:05:40.172Z,12.47
2019-03-25T23:08:08.173Z,12.34
2019-03-25T23:10:36.267Z,12.42
2019-03-25T23:13:04.333Z,12.41
2019-03-25T23:15:32.464Z,12.26
2019-03-25T23:18:00.547Z,12.05
2019-03-25T23:20:28.771Z,11.91
2019-03-25T23:22:56.871Z,11.93
2019-03-25T23:25:24.956Z,11.98
2019-03-25T23:27:55.497Z,12.08
2019-03-25T23:30:23.728Z,12.21
2019-03-25T23:32:51.707Z,12.03
2019-03-25T23:35:19.754Z,11.91
2019-03-25T23:37:48.155Z,11.88
2019-03-25T23:40:16.220Z,11.86
2019-03-25T23:42:44.359Z,11.80
2019-03-25T23:45:12.739Z,11.81
2019-03-25T23:47:40.760Z,11.80
2019-03-25T23:50:09.011Z,11.89
2019-03-25T23:52:37.049Z,11.81
2019-03-25T23:55:06.058Z,11.70
2019-03-25T23:57:34.135Z,11.75
